sensor_id;sensor_type;location;lat;lon;timestamp;temperature;humidity
56428;DHT22;42331;53.578;9.760;2023-02-11T00:00:10;5.80;99.90
56428;DHT22;42331;53.578;9.760;2023-02-11T00:02:41;5.80;99.90
56428;DHT22;42331;53.578;9.760;2023-02-11T00:05:12;5.80;99.90
56428;DHT22;42331;53.578;9.760;2023-02-11T00:07:43;5.80;99.90
56428;DHT22;42331;53.578;9.760;2023-02-11T00:10:13;5.80;99.90
56428;DHT22;42331;53.578;9.760;2023-02-11T00:12:44;5.90;99.90
56428;DHT22;42331;53.578;9.760;2023-02-11T00:15:15;5.90;99.90
56428;DHT22;42331;53.578;9.760;2023-02-11T00:17:46;5.90;99.90
56428;DHT22;42331;53.578;9.760;2023-02-11T00:20:16;6.00;99.90
56428;DHT22;42331;53.578;9.760;2023-02-11T00:22:47;5.90;99.90
56428;DHT22;42331;53.578;9.760;2023-02-11T00:25:18;5.90;99.90
56428;DHT22;42331;53.578;9.760;2023-02-11T00:27:48;6.00;99.90
56428;DHT22;42331;53.578;9.760;2023-02-11T00:30:19;6.00;99.90
56428;DHT22;42331;53.578;9.760;2023-02-11T00:32:50;6.00;99.90
56428;DHT22;42331;53.578;9.760;2023-02-11T00:35:21;6.00;99.90
56428;DHT22;42331;53.578;9.760;2023-02-11T00:37:55;5.90;99.90
56428;DHT22;42331;53.578;9.760;2023-02-11T00:40:26;5.90;99.90
56428;DHT22;42331;53.578;9.760;2023-02-11T00:42:56;5.90;99.90
56428;DHT22;42331;53.578;9.760;2023-02-11T00:45:27;5.80;99.90
56428;DHT22;42331;53.578;9.760;2023-02-11T00:48:00;5.90;99.90
56428;DHT22;42331;53.578;9.760;2023-02-11T00:50:30;5.90;99.90
56428;DHT22;42331;53.578;9.760;2023-02-11T00:53:01;5.90;99.90
56428;DHT22;42331;53.578;9.760;2023-02-11T00:55:32;5.80;99.90
56428;DHT22;42331;53.578;9.760;2023-02-11T00:58:02;5.90;99.90
56428;DHT22;42331;53.578;9.760;2023-02-11T01:00:33;5.90;99.90
56428;DHT22;42331;53.578;9.760;2023-02-11T01:03:04;5.80;99.90
56428;DHT22;42331;53.578;9.760;2023-02-11T01:05:34;5.80;99.90
56428;DHT22;42331;53.578;9.760;2023-02-11T01:08:05;5.80;99.90
56428;DHT22;42331;53.578;9.760;2023-02-11T01:10:36;5.90;99.90
56428;DHT22;42331;53.578;9.760;2023-02-11T01:13:07;5.90;99.90
56428;DHT22;42331;53.578;9.760;2023-02-11T01:15:38;5.90;99.90
56428;DHT22;42331;53.578;9.760;2023-02-11T01:18:08;5.90;99.90
56428;DHT22;42331;53.578;9.760;2023-02-11T01:20:39;5.90;99.90
56428;DHT22;42331;53.578;9.760;2023-02-11T01:23:10;5.90;99.90
56428;DHT22;42331;53.578;9.760;2023-02-11T01:25:40;5.90;99.90
56428;DHT22;42331;53.578;9.760;2023-02-11T01:28:20;5.90;99.90
56428;DHT22;42331;53.578;9.760;2023-02-11T01:30:51;5.90;99.90
56428;DHT22;42331;53.578;9.760;2023-02-11T01:33:22;6.00;99.90
56428;DHT22;42331;53.578;9.760;2023-02-11T01:35:53;6.00;99.90
56428;DHT22;42331;53.578;9.760;2023-02-11T01:38:25;6.00;99.90
56428;DHT22;42331;53.578;9.760;2023-02-11T01:40:58;6.00;99.90
56428;DHT22;42331;53.578;9.760;2023-02-11T01:43:35;6.00;99.90
56428;DHT22;42331;53.578;9.760;2023-02-11T01:49:10;5.90;99.90
56428;DHT22;42331;53.578;9.760;2023-02-11T01:51:49;5.90;99.90
56428;DHT22;42331;53.578;9.760;2023-02-11T01:54:24;5.90;99.90
56428;DHT22;42331;53.578;9.760;2023-02-11T01:57:16;5.90;99.90
56428;DHT22;42331;53.578;9.760;2023-02-11T02:00:16;5.90;99.90
56428;DHT22;42331;53.578;9.760;2023-02-11T02:08:40;6.00;99.90
56428;DHT22;42331;53.578;9.760;2023-02-11T02:11:13;6.10;99.90
56428;DHT22;42331;53.578;9.760;2023-02-11T02:13:44;6.10;99.90
56428;DHT22;42331;53.578;9.760;2023-02-11T02:16:18;6.10;99.90
56428;DHT22;42331;53.578;9.760;2023-02-11T02:24:53;6.20;99.90
56428;DHT22;42331;53.578;9.760;2023-02-11T02:27:47;6.20;99.90
56428;DHT22;42331;53.578;9.760;2023-02-11T02:36:34;6.20;99.90
56428;DHT22;42331;53.578;9.760;2023-02-11T02:39:20;6.20;99.90
56428;DHT22;42331;53.578;9.760;2023-02-11T02:41:54;6.20;99.90
56428;DHT22;42331;53.578;9.760;2023-02-11T02:44:25;6.10;99.90
56428;DHT22;42331;53.578;9.760;2023-02-11T02:46:56;6.20;99.90
56428;DHT22;42331;53.578;9.760;2023-02-11T02:49:27;6.10;99.90
56428;DHT22;42331;53.578;9.760;2023-02-11T03:08:33;6.00;99.90
56428;DHT22;42331;53.578;9.760;2023-02-11T03:11:05;6.00;99.90
56428;DHT22;42331;53.578;9.760;2023-02-11T03:13:38;6.00;99.90
56428;DHT22;42331;53.578;9.760;2023-02-11T03:16:18;6.00;99.90
56428;DHT22;42331;53.578;9.760;2023-02-11T03:19:05;6.00;99.90
56428;DHT22;42331;53.578;9.760;2023-02-11T03:21:39;6.00;99.90
56428;DHT22;42331;53.578;9.760;2023-02-11T03:24:20;6.10;99.90
56428;DHT22;42331;53.578;9.760;2023-02-11T03:26:53;6.10;99.90
56428;DHT22;42331;53.578;9.760;2023-02-11T03:29:40;6.10;99.90
56428;DHT22;42331;53.578;9.760;2023-02-11T03:32:31;6.10;99.90
56428;DHT22;42331;53.578;9.760;2023-02-11T03:35:16;6.10;99.90
56428;DHT22;42331;53.578;9.760;2023-02-11T03:37:56;6.20;99.90
56428;DHT22;42331;53.578;9.760;2023-02-11T03:40:31;6.20;99.90
56428;DHT22;42331;53.578;9.760;2023-02-11T03:45:38;6.20;99.90
56428;DHT22;42331;53.578;9.760;2023-02-11T03:48:39;6.30;99.90
56428;DHT22;42331;53.578;9.760;2023-02-11T03:51:11;6.30;99.90
56428;DHT22;42331;53.578;9.760;2023-02-11T03:53:44;6.40;99.90
56428;DHT22;42331;53.578;9.760;2023-02-11T03:56:21;6.40;99.90
56428;DHT22;42331;53.578;9.760;2023-02-11T03:58:53;6.40;99.90
56428;DHT22;42331;53.578;9.760;2023-02-11T04:01:24;6.50;99.90
56428;DHT22;42331;53.578;9.760;2023-02-11T04:03:55;6.50;99.90
56428;DHT22;42331;53.578;9.760;2023-02-11T04:06:26;6.60;99.90
56428;DHT22;42331;53.578;9.760;2023-02-11T04:08:56;6.50;99.90
56428;DHT22;42331;53.578;9.760;2023-02-11T04:11:27;6.60;99.90
56428;DHT22;42331;53.578;9.760;2023-02-11T04:13:58;6.60;99.90
56428;DHT22;42331;53.578;9.760;2023-02-11T04:16:28;6.60;99.90
56428;DHT22;42331;53.578;9.760;2023-02-11T04:19:00;6.60;99.90
56428;DHT22;42331;53.578;9.760;2023-02-11T04:21:31;6.60;99.90
56428;DHT22;42331;53.578;9.760;2023-02-11T04:24:01;6.70;99.90
56428;DHT22;42331;53.578;9.760;2023-02-11T04:26:32;6.70;99.90
56428;DHT22;42331;53.578;9.760;2023-02-11T04:29:03;6.70;99.90
56428;DHT22;42331;53.578;9.760;2023-02-11T04:31:33;6.70;99.90
56428;DHT22;42331;53.578;9.760;2023-02-11T04:34:04;6.70;99.90
56428;DHT22;42331;53.578;9.760;2023-02-11T04:36:35;6.80;99.90
56428;DHT22;42331;53.578;9.760;2023-02-11T04:39:06;6.70;99.90
56428;DHT22;42331;53.578;9.760;2023-02-11T04:41:37;6.80;99.90
56428;DHT22;42331;53.578;9.760;2023-02-11T04:44:07;6.70;99.90
56428;DHT22;42331;53.578;9.760;2023-02-11T04:46:38;6.80;99.90
56428;DHT22;42331;53.578;9.760;2023-02-11T04:49:12;6.80;99.90
56428;DHT22;42331;53.578;9.760;2023-02-11T04:51:43;6.90;99.90
56428;DHT22;42331;53.578;9.760;2023-02-11T04:54:14;6.80;99.90
56428;DHT22;42331;53.578;9.760;2023-02-11T04:56:45;6.90;99.90
56428;DHT22;42331;53.578;9.760;2023-02-11T04:59:16;6.80;99.90
56428;DHT22;42331;53.578;9.760;2023-02-11T05:01:47;6.80;99.90
56428;DHT22;42331;53.578;9.760;2023-02-11T05:04:18;6.90;99.90
56428;DHT22;42331;53.578;9.760;2023-02-11T05:06:49;6.80;99.90
56428;DHT22;42331;53.578;9.760;2023-02-11T05:09:19;6.80;99.90
56428;DHT22;42331;53.578;9.760;2023-02-11T05:11:50;6.80;99.90
56428;DHT22;42331;53.578;9.760;2023-02-11T05:14:21;6.70;99.90
56428;DHT22;42331;53.578;9.760;2023-02-11T05:16:51;6.80;99.90
56428;DHT22;42331;53.578;9.760;2023-02-11T05:19:22;6.70;99.90
56428;DHT22;42331;53.578;9.760;2023-02-11T05:21:53;6.70;99.90
56428;DHT22;42331;53.578;9.760;2023-02-11T05:24:23;6.80;99.90
56428;DHT22;42331;53.578;9.760;2023-02-11T05:26:54;6.70;99.90
56428;DHT22;42331;53.578;9.760;2023-02-11T05:29:25;6.70;99.90
56428;DHT22;42331;53.578;9.760;2023-02-11T05:31:57;6.70;99.90
56428;DHT22;42331;53.578;9.760;2023-02-11T05:34:27;6.70;99.90
56428;DHT22;42331;53.578;9.760;2023-02-11T05:36:58;6.60;99.90
56428;DHT22;42331;53.578;9.760;2023-02-11T05:39:29;6.70;99.90
56428;DHT22;42331;53.578;9.760;2023-02-11T05:41:59;6.70;99.90
56428;DHT22;42331;53.578;9.760;2023-02-11T05:44:30;6.70;99.90
56428;DHT22;42331;53.578;9.760;2023-02-11T05:47:01;6.70;99.90
56428;DHT22;42331;53.578;9.760;2023-02-11T05:49:31;6.70;99.90
56428;DHT22;42331;53.578;9.760;2023-02-11T05:52:02;6.70;99.90
56428;DHT22;42331;53.578;9.760;2023-02-11T05:54:33;6.70;99.90
56428;DHT22;42331;53.578;9.760;2023-02-11T05:57:04;6.70;99.90
56428;DHT22;42331;53.578;9.760;2023-02-11T05:59:34;6.70;99.90
56428;DHT22;42331;53.578;9.760;2023-02-11T06:02:06;6.70;99.90
56428;DHT22;42331;53.578;9.760;2023-02-11T06:04:37;6.70;99.90
56428;DHT22;42331;53.578;9.760;2023-02-11T06:07:08;6.70;99.90
56428;DHT22;42331;53.578;9.760;2023-02-11T06:09:38;6.80;99.90
56428;DHT22;42331;53.578;9.760;2023-02-11T06:12:09;6.80;99.90
56428;DHT22;42331;53.578;9.760;2023-02-11T06:14:40;6.80;99.90
56428;DHT22;42331;53.578;9.760;2023-02-11T06:17:11;6.80;99.90
56428;DHT22;42331;53.578;9.760;2023-02-11T06:19:41;6.80;99.90
56428;DHT22;42331;53.578;9.760;2023-02-11T06:22:15;6.80;99.90
56428;DHT22;42331;53.578;9.760;2023-02-11T06:24:47;6.80;99.90
56428;DHT22;42331;53.578;9.760;2023-02-11T06:27:18;6.90;99.90
56428;DHT22;42331;53.578;9.760;2023-02-11T06:29:49;6.90;99.90
56428;DHT22;42331;53.578;9.760;2023-02-11T06:32:21;6.90;99.90
56428;DHT22;42331;53.578;9.760;2023-02-11T06:34:52;6.90;99.90
56428;DHT22;42331;53.578;9.760;2023-02-11T06:37:23;6.90;99.90
56428;DHT22;42331;53.578;9.760;2023-02-11T06:39:53;6.90;99.90
56428;DHT22;42331;53.578;9.760;2023-02-11T06:42:24;6.90;99.90
56428;DHT22;42331;53.578;9.760;2023-02-11T06:45:08;6.90;99.90
56428;DHT22;42331;53.578;9.760;2023-02-11T06:47:55;7.00;99.90
56428;DHT22;42331;53.578;9.760;2023-02-11T06:50:26;7.00;99.90
56428;DHT22;42331;53.578;9.760;2023-02-11T06:53:00;6.90;99.90
56428;DHT22;42331;53.578;9.760;2023-02-11T06:55:44;6.90;99.90
56428;DHT22;42331;53.578;9.760;2023-02-11T06:58:23;6.90;99.90
56428;DHT22;42331;53.578;9.760;2023-02-11T07:01:03;7.00;99.90
56428;DHT22;42331;53.578;9.760;2023-02-11T07:03:37;6.90;99.90
56428;DHT22;42331;53.578;9.760;2023-02-11T07:06:12;6.90;99.90
56428;DHT22;42331;53.578;9.760;2023-02-11T07:08:44;6.90;99.90
56428;DHT22;42331;53.578;9.760;2023-02-11T07:11:21;6.90;99.90
56428;DHT22;42331;53.578;9.760;2023-02-11T07:14:03;6.90;99.90
56428;DHT22;42331;53.578;9.760;2023-02-11T07:16:37;6.90;99.90
56428;DHT22;42331;53.578;9.760;2023-02-11T07:19:17;6.90;99.90
56428;DHT22;42331;53.578;9.760;2023-02-11T07:21:51;6.90;99.90
56428;DHT22;42331;53.578;9.760;2023-02-11T07:24:22;7.00;99.90
56428;DHT22;42331;53.578;9.760;2023-02-11T07:26:53;6.90;99.90
56428;DHT22;42331;53.578;9.760;2023-02-11T07:29:23;6.90;99.90
56428;DHT22;42331;53.578;9.760;2023-02-11T07:31:54;6.90;99.90
56428;DHT22;42331;53.578;9.760;2023-02-11T07:34:25;6.90;99.90
56428;DHT22;42331;53.578;9.760;2023-02-11T07:36:55;6.90;99.90
56428;DHT22;42331;53.578;9.760;2023-02-11T07:39:26;6.90;99.90
56428;DHT22;42331;53.578;9.760;2023-02-11T07:41:57;6.90;99.90
56428;DHT22;42331;53.578;9.760;2023-02-11T07:44:30;6.90;99.90
56428;DHT22;42331;53.578;9.760;2023-02-11T07:47:10;7.00;99.90
56428;DHT22;42331;53.578;9.760;2023-02-11T07:49:41;7.00;99.90
56428;DHT22;42331;53.578;9.760;2023-02-11T07:52:12;7.00;99.90
56428;DHT22;42331;53.578;9.760;2023-02-11T07:54:43;7.00;99.90
56428;DHT22;42331;53.578;9.760;2023-02-11T07:57:14;7.00;99.90
56428;DHT22;42331;53.578;9.760;2023-02-11T07:59:44;7.00;99.90
56428;DHT22;42331;53.578;9.760;2023-02-11T08:02:15;7.00;99.90
56428;DHT22;42331;53.578;9.760;2023-02-11T08:04:46;7.10;99.90
56428;DHT22;42331;53.578;9.760;2023-02-11T08:07:17;7.00;99.90
56428;DHT22;42331;53.578;9.760;2023-02-11T08:09:47;7.10;99.90
56428;DHT22;42331;53.578;9.760;2023-02-11T08:12:29;7.00;99.90
56428;DHT22;42331;53.578;9.760;2023-02-11T08:15:06;7.10;99.90
56428;DHT22;42331;53.578;9.760;2023-02-11T08:17:40;7.10;99.90
56428;DHT22;42331;53.578;9.760;2023-02-11T08:20:11;7.10;99.90
56428;DHT22;42331;53.578;9.760;2023-02-11T08:22:42;7.10;99.90
56428;DHT22;42331;53.578;9.760;2023-02-11T08:25:12;7.10;99.90
56428;DHT22;42331;53.578;9.760;2023-02-11T08:27:43;7.10;99.90
56428;DHT22;42331;53.578;9.760;2023-02-11T08:30:14;7.10;99.90
56428;DHT22;42331;53.578;9.760;2023-02-11T08:32:45;7.20;99.90
56428;DHT22;42331;53.578;9.760;2023-02-11T08:35:16;7.20;99.90
56428;DHT22;42331;53.578;9.760;2023-02-11T08:37:46;7.20;99.90
56428;DHT22;42331;53.578;9.760;2023-02-11T08:40:18;7.20;99.90
56428;DHT22;42331;53.578;9.760;2023-02-11T08:42:48;7.20;99.90
56428;DHT22;42331;53.578;9.760;2023-02-11T08:45:19;7.20;99.90
56428;DHT22;42331;53.578;9.760;2023-02-11T08:47:50;7.20;99.90
56428;DHT22;42331;53.578;9.760;2023-02-11T08:50:24;7.20;99.90
56428;DHT22;42331;53.578;9.760;2023-02-11T08:53:00;7.30;99.90
56428;DHT22;42331;53.578;9.760;2023-02-11T08:55:30;7.30;99.90
56428;DHT22;42331;53.578;9.760;2023-02-11T08:58:02;7.20;99.90
56428;DHT22;42331;53.578;9.760;2023-02-11T09:00:33;7.20;99.90
56428;DHT22;42331;53.578;9.760;2023-02-11T09:03:03;7.10;99.90
56428;DHT22;42331;53.578;9.760;2023-02-11T09:05:34;7.10;99.90
56428;DHT22;42331;53.578;9.760;2023-02-11T09:08:19;7.20;99.90
56428;DHT22;42331;53.578;9.760;2023-02-11T09:11:01;7.20;99.90
56428;DHT22;42331;53.578;9.760;2023-02-11T09:13:40;7.20;99.90
56428;DHT22;42331;53.578;9.760;2023-02-11T09:16:20;7.30;99.90
56428;DHT22;42331;53.578;9.760;2023-02-11T09:19:15;7.30;99.90
56428;DHT22;42331;53.578;9.760;2023-02-11T09:21:56;7.30;99.90
56428;DHT22;42331;53.578;9.760;2023-02-11T09:24:33;7.30;99.90
56428;DHT22;42331;53.578;9.760;2023-02-11T09:27:16;7.30;99.90
56428;DHT22;42331;53.578;9.760;2023-02-11T09:29:55;7.40;99.90
56428;DHT22;42331;53.578;9.760;2023-02-11T09:32:38;7.40;99.90
56428;DHT22;42331;53.578;9.760;2023-02-11T09:35:18;7.40;99.90
56428;DHT22;42331;53.578;9.760;2023-02-11T09:38:03;7.40;99.90
56428;DHT22;42331;53.578;9.760;2023-02-11T09:40:43;7.40;99.90
56428;DHT22;42331;53.578;9.760;2023-02-11T09:43:30;7.40;99.90
56428;DHT22;42331;53.578;9.760;2023-02-11T09:46:15;7.50;99.90
56428;DHT22;42331;53.578;9.760;2023-02-11T09:48:53;7.50;99.90
56428;DHT22;42331;53.578;9.760;2023-02-11T09:51:57;7.60;99.90
56428;DHT22;42331;53.578;9.760;2023-02-11T09:54:53;7.60;99.90
56428;DHT22;42331;53.578;9.760;2023-02-11T09:57:31;7.60;99.90
56428;DHT22;42331;53.578;9.760;2023-02-11T10:03:19;7.80;99.90
56428;DHT22;42331;53.578;9.760;2023-02-11T10:21:11;7.80;99.90
56428;DHT22;42331;53.578;9.760;2023-02-11T10:23:48;7.80;99.90
56428;DHT22;42331;53.578;9.760;2023-02-11T10:26:21;7.80;99.90
56428;DHT22;42331;53.578;9.760;2023-02-11T10:28:54;7.80;99.90
56428;DHT22;42331;53.578;9.760;2023-02-11T10:31:35;7.90;99.90
56428;DHT22;42331;53.578;9.760;2023-02-11T10:34:10;7.90;99.90
56428;DHT22;42331;53.578;9.760;2023-02-11T10:36:42;7.90;99.90
56428;DHT22;42331;53.578;9.760;2023-02-11T10:39:18;7.80;99.90
56428;DHT22;42331;53.578;9.760;2023-02-11T10:42:01;7.80;99.90
56428;DHT22;42331;53.578;9.760;2023-02-11T10:44:41;7.80;99.90
56428;DHT22;42331;53.578;9.760;2023-02-11T10:47:20;7.80;99.90
56428;DHT22;42331;53.578;9.760;2023-02-11T10:49:52;7.80;99.90
56428;DHT22;42331;53.578;9.760;2023-02-11T10:52:25;7.80;99.90
56428;DHT22;42331;53.578;9.760;2023-02-11T10:57:32;7.80;99.90
56428;DHT22;42331;53.578;9.760;2023-02-11T11:02:58;7.90;99.90
56428;DHT22;42331;53.578;9.760;2023-02-11T11:05:36;7.90;99.90
56428;DHT22;42331;53.578;9.760;2023-02-11T11:08:15;7.90;99.90
56428;DHT22;42331;53.578;9.760;2023-02-11T11:11:02;7.90;99.90
56428;DHT22;42331;53.578;9.760;2023-02-11T11:18:46;7.70;99.90
56428;DHT22;42331;53.578;9.760;2023-02-11T11:21:20;7.80;99.90
56428;DHT22;42331;53.578;9.760;2023-02-11T11:23:54;7.70;99.90
56428;DHT22;42331;53.578;9.760;2023-02-11T11:26:28;7.80;99.90
56428;DHT22;42331;53.578;9.760;2023-02-11T11:29:25;7.80;99.90
56428;DHT22;42331;53.578;9.760;2023-02-11T11:32:26;7.80;99.90
56428;DHT22;42331;53.578;9.760;2023-02-11T11:35:00;7.90;99.90
56428;DHT22;42331;53.578;9.760;2023-02-11T11:37:36;7.90;99.90
56428;DHT22;42331;53.578;9.760;2023-02-11T11:40:20;7.90;99.90
56428;DHT22;42331;53.578;9.760;2023-02-11T11:45:58;7.90;99.90
56428;DHT22;42331;53.578;9.760;2023-02-11T11:48:37;8.00;99.90
56428;DHT22;42331;53.578;9.760;2023-02-11T11:51:10;8.00;99.90
56428;DHT22;42331;53.578;9.760;2023-02-11T11:53:50;8.10;99.90
56428;DHT22;42331;53.578;9.760;2023-02-11T11:56:29;8.00;99.90
56428;DHT22;42331;53.578;9.760;2023-02-11T11:59:09;8.10;99.90
56428;DHT22;42331;53.578;9.760;2023-02-11T12:02:05;8.10;99.90
56428;DHT22;42331;53.578;9.760;2023-02-11T12:05:28;8.10;99.90
56428;DHT22;42331;53.578;9.760;2023-02-11T12:10:40;8.20;99.90
56428;DHT22;42331;53.578;9.760;2023-02-11T12:16:39;8.20;99.90
56428;DHT22;42331;53.578;9.760;2023-02-11T12:27:54;8.20;99.90
56428;DHT22;42331;53.578;9.760;2023-02-11T12:33:31;8.20;99.90
56428;DHT22;42331;53.578;9.760;2023-02-11T12:42:12;8.10;99.90
56428;DHT22;42331;53.578;9.760;2023-02-11T12:45:27;8.10;99.90
56428;DHT22;42331;53.578;9.760;2023-02-11T12:51:09;8.20;99.90
56428;DHT22;42331;53.578;9.760;2023-02-11T12:53:48;8.20;99.90
56428;DHT22;42331;53.578;9.760;2023-02-11T12:56:37;8.10;99.90
56428;DHT22;42331;53.578;9.760;2023-02-11T12:59:16;8.10;99.90
56428;DHT22;42331;53.578;9.760;2023-02-11T13:01:51;8.20;99.90
56428;DHT22;42331;53.578;9.760;2023-02-11T13:04:32;8.20;99.90
56428;DHT22;42331;53.578;9.760;2023-02-11T13:07:38;8.20;99.90
56428;DHT22;42331;53.578;9.760;2023-02-11T13:10:30;8.20;99.90
56428;DHT22;42331;53.578;9.760;2023-02-11T13:13:18;8.20;99.90
56428;DHT22;42331;53.578;9.760;2023-02-11T13:16:05;8.20;99.90
56428;DHT22;42331;53.578;9.760;2023-02-11T13:18:46;8.20;99.90
56428;DHT22;42331;53.578;9.760;2023-02-11T13:21:28;8.20;99.90
56428;DHT22;42331;53.578;9.760;2023-02-11T13:38:22;8.30;99.90
56428;DHT22;42331;53.578;9.760;2023-02-11T13:41:15;8.30;99.90
56428;DHT22;42331;53.578;9.760;2023-02-11T13:44:00;8.30;99.90
56428;DHT22;42331;53.578;9.760;2023-02-11T13:46:52;8.30;99.90
56428;DHT22;42331;53.578;9.760;2023-02-11T13:49:33;8.40;99.90
56428;DHT22;42331;53.578;9.760;2023-02-11T13:52:17;8.30;99.90
56428;DHT22;42331;53.578;9.760;2023-02-11T13:54:53;8.40;99.90
56428;DHT22;42331;53.578;9.760;2023-02-11T13:57:29;8.40;99.90
56428;DHT22;42331;53.578;9.760;2023-02-11T14:09:32;8.40;99.90
56428;DHT22;42331;53.578;9.760;2023-02-11T14:15:17;8.40;99.90
56428;DHT22;42331;53.578;9.760;2023-02-11T14:17:48;8.30;99.90
56428;DHT22;42331;53.578;9.760;2023-02-11T14:20:38;8.30;99.90
56428;DHT22;42331;53.578;9.760;2023-02-11T14:23:23;8.40;99.90
56428;DHT22;42331;53.578;9.760;2023-02-11T14:28:57;8.40;99.90
56428;DHT22;42331;53.578;9.760;2023-02-11T14:43:11;8.30;99.90
56428;DHT22;42331;53.578;9.760;2023-02-11T14:45:46;8.30;99.90
56428;DHT22;42331;53.578;9.760;2023-02-11T14:48:31;8.40;99.90
56428;DHT22;42331;53.578;9.760;2023-02-11T14:51:08;8.30;99.90
56428;DHT22;42331;53.578;9.760;2023-02-11T14:53:44;8.40;99.90
56428;DHT22;42331;53.578;9.760;2023-02-11T14:56:24;8.30;99.90
56428;DHT22;42331;53.578;9.760;2023-02-11T14:58:56;8.40;99.90
56428;DHT22;42331;53.578;9.760;2023-02-11T15:01:38;8.30;99.90
56428;DHT22;42331;53.578;9.760;2023-02-11T15:04:31;8.30;99.90
56428;DHT22;42331;53.578;9.760;2023-02-11T15:07:05;8.20;99.90
56428;DHT22;42331;53.578;9.760;2023-02-11T15:09:39;8.20;99.90
56428;DHT22;42331;53.578;9.760;2023-02-11T15:12:21;8.20;99.90
56428;DHT22;42331;53.578;9.760;2023-02-11T15:14:57;8.20;99.90
56428;DHT22;42331;53.578;9.760;2023-02-11T15:17:30;8.20;99.90
56428;DHT22;42331;53.578;9.760;2023-02-11T15:20:01;8.10;99.90
56428;DHT22;42331;53.578;9.760;2023-02-11T15:22:33;8.00;99.90
56428;DHT22;42331;53.578;9.760;2023-02-11T15:27:42;7.80;99.90
56428;DHT22;42331;53.578;9.760;2023-02-11T15:30:24;7.80;99.90
56428;DHT22;42331;53.578;9.760;2023-02-11T15:33:00;7.90;99.90
56428;DHT22;42331;53.578;9.760;2023-02-11T15:35:38;7.90;99.90
56428;DHT22;42331;53.578;9.760;2023-02-11T15:38:12;7.90;99.90
56428;DHT22;42331;53.578;9.760;2023-02-11T15:41:00;7.90;99.90
56428;DHT22;42331;53.578;9.760;2023-02-11T15:43:49;7.90;99.90
56428;DHT22;42331;53.578;9.760;2023-02-11T15:46:23;7.90;99.90
56428;DHT22;42331;53.578;9.760;2023-02-11T15:48:59;7.90;99.90
56428;DHT22;42331;53.578;9.760;2023-02-11T15:51:33;7.90;99.90
56428;DHT22;42331;53.578;9.760;2023-02-11T15:54:15;7.90;99.90
56428;DHT22;42331;53.578;9.760;2023-02-11T15:56:48;7.80;99.90
56428;DHT22;42331;53.578;9.760;2023-02-11T15:59:29;7.80;99.90
56428;DHT22;42331;53.578;9.760;2023-02-11T16:02:08;7.70;99.90
56428;DHT22;42331;53.578;9.760;2023-02-11T16:04:48;7.70;99.90
56428;DHT22;42331;53.578;9.760;2023-02-11T16:07:47;7.70;99.90
56428;DHT22;42331;53.578;9.760;2023-02-11T16:21:05;7.60;99.90
56428;DHT22;42331;53.578;9.760;2023-02-11T16:23:38;7.60;99.90
56428;DHT22;42331;53.578;9.760;2023-02-11T16:29:06;7.70;99.90
56428;DHT22;42331;53.578;9.760;2023-02-11T16:31:40;7.70;99.90
56428;DHT22;42331;53.578;9.760;2023-02-11T16:34:22;7.60;99.90
56428;DHT22;42331;53.578;9.760;2023-02-11T16:36:53;7.70;99.90
56428;DHT22;42331;53.578;9.760;2023-02-11T16:39:24;7.80;99.90
56428;DHT22;42331;53.578;9.760;2023-02-11T16:41:55;7.80;99.90
56428;DHT22;42331;53.578;9.760;2023-02-11T16:44:27;7.70;99.90
56428;DHT22;42331;53.578;9.760;2023-02-11T16:47:00;7.80;99.90
56428;DHT22;42331;53.578;9.760;2023-02-11T16:49:38;7.70;99.90
56428;DHT22;42331;53.578;9.760;2023-02-11T16:52:14;7.80;99.90
56428;DHT22;42331;53.578;9.760;2023-02-11T16:54:45;7.80;99.90
56428;DHT22;42331;53.578;9.760;2023-02-11T16:57:19;7.80;99.90
56428;DHT22;42331;53.578;9.760;2023-02-11T16:59:51;7.80;99.90
56428;DHT22;42331;53.578;9.760;2023-02-11T17:02:27;7.80;99.90
56428;DHT22;42331;53.578;9.760;2023-02-11T17:05:00;7.80;99.90
56428;DHT22;42331;53.578;9.760;2023-02-11T17:07:31;7.80;99.90
56428;DHT22;42331;53.578;9.760;2023-02-11T17:10:02;7.80;99.90
56428;DHT22;42331;53.578;9.760;2023-02-11T17:12:33;7.70;99.90
56428;DHT22;42331;53.578;9.760;2023-02-11T17:15:04;7.70;99.90
56428;DHT22;42331;53.578;9.760;2023-02-11T17:17:35;7.70;99.90
56428;DHT22;42331;53.578;9.760;2023-02-11T17:20:07;7.70;99.90
56428;DHT22;42331;53.578;9.760;2023-02-11T17:22:39;7.70;99.90
56428;DHT22;42331;53.578;9.760;2023-02-11T17:25:09;7.70;99.90
56428;DHT22;42331;53.578;9.760;2023-02-11T17:27:41;7.70;99.90
56428;DHT22;42331;53.578;9.760;2023-02-11T17:30:12;7.70;99.90
56428;DHT22;42331;53.578;9.760;2023-02-11T17:32:43;7.70;99.90
56428;DHT22;42331;53.578;9.760;2023-02-11T17:35:14;7.60;99.90
56428;DHT22;42331;53.578;9.760;2023-02-11T17:37:44;7.70;99.90
56428;DHT22;42331;53.578;9.760;2023-02-11T17:40:15;7.70;99.90
56428;DHT22;42331;53.578;9.760;2023-02-11T17:42:46;7.60;99.90
56428;DHT22;42331;53.578;9.760;2023-02-11T17:45:17;7.70;99.90
56428;DHT22;42331;53.578;9.760;2023-02-11T17:47:47;7.60;99.90
56428;DHT22;42331;53.578;9.760;2023-02-11T17:50:18;7.60;99.90
56428;DHT22;42331;53.578;9.760;2023-02-11T17:52:49;7.60;99.90
56428;DHT22;42331;53.578;9.760;2023-02-11T17:55:20;7.60;99.90
56428;DHT22;42331;53.578;9.760;2023-02-11T17:57:51;7.60;99.90
56428;DHT22;42331;53.578;9.760;2023-02-11T18:00:21;7.70;99.90
56428;DHT22;42331;53.578;9.760;2023-02-11T18:02:52;7.60;99.90
56428;DHT22;42331;53.578;9.760;2023-02-11T18:05:23;7.60;99.90
56428;DHT22;42331;53.578;9.760;2023-02-11T18:07:56;7.60;99.90
56428;DHT22;42331;53.578;9.760;2023-02-11T18:10:27;7.60;99.90
56428;DHT22;42331;53.578;9.760;2023-02-11T18:12:59;7.60;99.90
56428;DHT22;42331;53.578;9.760;2023-02-11T18:15:31;7.60;99.90
56428;DHT22;42331;53.578;9.760;2023-02-11T18:18:02;7.60;99.90
56428;DHT22;42331;53.578;9.760;2023-02-11T18:20:33;7.60;99.90
56428;DHT22;42331;53.578;9.760;2023-02-11T18:23:03;7.60;99.90
56428;DHT22;42331;53.578;9.760;2023-02-11T18:25:34;7.60;99.90
56428;DHT22;42331;53.578;9.760;2023-02-11T18:28:05;7.60;99.90
56428;DHT22;42331;53.578;9.760;2023-02-11T18:30:35;7.60;99.90
56428;DHT22;42331;53.578;9.760;2023-02-11T18:33:06;7.50;99.90
56428;DHT22;42331;53.578;9.760;2023-02-11T18:35:41;7.50;99.90
56428;DHT22;42331;53.578;9.760;2023-02-11T18:38:12;7.50;99.90
56428;DHT22;42331;53.578;9.760;2023-02-11T18:40:43;7.60;99.90
56428;DHT22;42331;53.578;9.760;2023-02-11T18:43:17;7.60;99.90
56428;DHT22;42331;53.578;9.760;2023-02-11T18:45:49;7.60;99.90
56428;DHT22;42331;53.578;9.760;2023-02-11T18:48:20;7.60;99.90
56428;DHT22;42331;53.578;9.760;2023-02-11T18:50:50;7.50;99.90
56428;DHT22;42331;53.578;9.760;2023-02-11T18:53:22;7.60;99.90
56428;DHT22;42331;53.578;9.760;2023-02-11T18:55:53;7.60;99.90
56428;DHT22;42331;53.578;9.760;2023-02-11T18:58:23;7.50;99.90
56428;DHT22;42331;53.578;9.760;2023-02-11T19:00:54;7.50;99.90
56428;DHT22;42331;53.578;9.760;2023-02-11T19:03:25;7.60;99.90
56428;DHT22;42331;53.578;9.760;2023-02-11T19:05:55;7.60;99.90
56428;DHT22;42331;53.578;9.760;2023-02-11T19:08:26;7.60;99.90
56428;DHT22;42331;53.578;9.760;2023-02-11T19:10:57;7.60;99.90